الصفحة الرئيسية
METAR-TAF:

METAR-TAF

مطار :

مطار تشنغدو شوانغليو الدولي

تشنغدو, جمهورية الصين الشعبية

دائرة عرض: 30-40N, خط طول: 104-01E, ارتفاع: 508 متر

مراقبة الطقس الحالي

تاريخ ووقت الإصدار 12ساعات و 26 دقيقة قبل الساعة 05:00UTC
رياح هادئة
درجة الحرارة 31°درجة مئوية
الرطوبة 66%
ضغط 1004 hPa
الرؤية 10 كم أو أكثر
الغيوم لا تقل 1500 م ولا وجود لمزنة ركامية السحاب الأسود

METAR: ZUUU 210500Z 00000MPS CAVOK 31/24 Q1004 NOSIG

زمن: 01:26 (17:26 UTC)

توقعات

تاريخ ووقت الإصدار 14ساعات و 25 دقيقة قبل الساعة 03:01UTC
التوقعات صالحة من21 الساعة 06 UTC إلى 22 الساعة 06 UTC
ريح 6 عقدة من الجنوب/الجنوب الغربي
الرؤية: 5000 متر
غيوم قليلة على ارتفاع 3000 قدم, مزنة ركامية.
غيوم متفرقة على ارتفاع 4000 قدم
غشاء
مؤقت
من 21 الساعة 08 UTC إلى 21 الساعة 11 UTC
عاصفة رعدية, مطر خفيف
مؤقت
من 21 الساعة 21 UTC إلى 22 الساعة 01 UTC
عاصفة رعدية, مطر خفيف

TAF: ZUUU 210301Z 2106/2206 20003MPS 5000 BR FEW030CB SCT040 TX31/2107Z TN23/2123Z TEMPO 2108/2111 -TSRA TEMPO 2121/2201 -TSRA

أرصاد الطقس والتوقعات من أكثر من 4000 مطار (تقارير الطقس للمطار METAR والتنبؤ بالطقس بالمطارTAF).

المحطات المتاحة هي النقط الصفراء والحمراء على الخريطة.

حرك المؤشر فوق النقطة لمعرفة اسم المحطة.

ثم انقر لمعرفة أرصاد وتوقعات الطقس.

لتغيير الخارطة: اضغط على الأزرار الخضراء مع رمز الصليب الأسود للتكبير. على الزر الأخضر مع شرطة للتصغير، أو على الأسهم الخضراء للخرائط المجاورة.


METAR-TAF: